^^

..:: Storico WU ::..




Lo storico viene creato da WUnderground con i dati che la stazione Meteomincio invia al loro server. L' aggiornamento viene fatto ogni 5 minuti circa, tuttavia possono esserci intervalli pił ampi a causa di errori, interruzioni di servizio o problemi nell' invio tramite FTP.


Storico stazione MeteoMincio
Giorno Sommario per Giugno 17, 2022 Unità:  Metrico    Inglese   Entrambi
Giorno Settimana Mese Anno
  Max: Min: Media:
Temperatura: 34.0 °C 22.0 °C 27.9 °C
Dew Point: 22.0 °C 17.0 °C 19.7 °C
Umidità: 81% 44% 62%
Velocità vento: 13km/h 0km/h 5.7km/h
Raffica: 19km/h - -
Direzione- - East
Pressione: 1019.2 hPa 1015.5 hPa -
Precipitazioni: 0.00 mm    
 
 
Tabulato Dati per Giugno 17, 2022
Ora Temperatura Dew Point Pressione Direzione Velocità vento Raffica Umidità Intensità pioggia (oraria) Info solare Situazione
00:04 25.0 °C 19.0 °C 1015.9 hPa ENE 10 km/h 15 km/h 71% 0.00 mm 0.00 W/m2 unknown
00:09 25.0 °C 19.0 °C 1015.9 hPa ENE 10 km/h 15 km/h 71% 0.00 mm 0.00 W/m2 unknown
00:14 25.0 °C 19.0 °C 1015.9 hPa ENE 10 km/h 14 km/h 71% 0.00 mm 0.00 W/m2 unknown
00:19 25.0 °C 19.0 °C 1016.0 hPa ENE 8 km/h 13 km/h 71% 0.00 mm 0.00 W/m2 unknown
00:24 25.0 °C 19.0 °C 1016.0 hPa ENE 8 km/h 13 km/h 72% 0.00 mm 0.00 W/m2 unknown
00:29 24.0 °C 19.0 °C 1016.0 hPa ENE 10 km/h 13 km/h 72% 0.00 mm 0.00 W/m2 unknown
00:34 24.0 °C 19.0 °C 1016.0 hPa ENE 11 km/h 15 km/h 72% 0.00 mm 0.00 W/m2 unknown
00:39 24.0 °C 19.0 °C 1015.9 hPa ENE 11 km/h 15 km/h 72% 0.00 mm 0.00 W/m2 unknown
00:44 24.0 °C 19.0 °C 1015.9 hPa ENE 10 km/h 15 km/h 71% 0.00 mm 0.00 W/m2 unknown
00:49 24.0 °C 19.0 °C 1016.0 hPa ENE 10 km/h 14 km/h 71% 0.00 mm 0.00 W/m2 unknown
00:54 24.0 °C 19.0 °C 1016.1 hPa ENE 8 km/h 11 km/h 71% 0.00 mm 0.00 W/m2 unknown
00:59 24.0 °C 19.0 °C 1016.1 hPa ENE 8 km/h 13 km/h 71% 0.00 mm 0.00 W/m2 unknown
01:04 24.0 °C 18.0 °C 1016.1 hPa ENE 9 km/h 13 km/h 70% 0.00 mm 0.00 W/m2 unknown
01:09 24.0 °C 18.0 °C 1016.2 hPa ENE 10 km/h 13 km/h 70% 0.00 mm 0.00 W/m2 unknown
01:14 24.0 °C 18.0 °C 1016.3 hPa ENE 8 km/h 11 km/h 70% 0.00 mm 0.00 W/m2 unknown
01:19 24.0 °C 18.0 °C 1016.3 hPa ENE 9 km/h 13 km/h 69% 0.00 mm 0.00 W/m2 unknown
01:24 24.0 °C 18.0 °C 1016.2 hPa ENE 10 km/h 13 km/h 68% 0.00 mm 0.00 W/m2 unknown
01:29 24.0 °C 18.0 °C 1016.1 hPa ENE 10 km/h 13 km/h 68% 0.00 mm 0.00 W/m2 unknown
01:34 24.0 °C 18.0 °C 1016.2 hPa ENE 9 km/h 13 km/h 68% 0.00 mm 0.00 W/m2 unknown
01:39 24.0 °C 18.0 °C 1016.2 hPa ENE 10 km/h 13 km/h 68% 0.00 mm 0.00 W/m2 unknown
01:44 24.0 °C 18.0 °C 1016.2 hPa ENE 10 km/h 13 km/h 68% 0.00 mm 0.00 W/m2 unknown
01:49 24.0 °C 18.0 °C 1016.2 hPa ENE 12 km/h 19 km/h 69% 0.00 mm 0.00 W/m2 unknown
01:54 24.0 °C 18.0 °C 1016.2 hPa ENE 13 km/h 19 km/h 69% 0.00 mm 0.00 W/m2 unknown
01:59 24.0 °C 18.0 °C 1016.2 hPa ENE 13 km/h 19 km/h 70% 0.00 mm 0.00 W/m2 unknown
02:04 24.0 °C 18.0 °C 1016.2 hPa ENE 11 km/h 19 km/h 70% 0.00 mm 0.00 W/m2 unknown
02:09 24.0 °C 19.0 °C 1016.3 hPa ENE 8 km/h 15 km/h 71% 0.00 mm 0.00 W/m2 unknown
02:14 24.0 °C 19.0 °C 1016.3 hPa ENE 8 km/h 15 km/h 71% 0.00 mm 0.00 W/m2 unknown
02:19 24.0 °C 19.0 °C 1016.4 hPa ENE 8 km/h 15 km/h 71% 0.00 mm 0.00 W/m2 unknown
02:23 24.0 °C 19.0 °C 1016.4 hPa East 8 km/h 14 km/h 71% 0.00 mm 0.00 W/m2 unknown
02:29 24.0 °C 19.0 °C 1016.4 hPa ENE 8 km/h 11 km/h 71% 0.00 mm 0.00 W/m2 unknown
02:34 24.0 °C 19.0 °C 1016.4 hPa ENE 8 km/h 13 km/h 71% 0.00 mm 0.00 W/m2 unknown
02:39 24.0 °C 18.0 °C 1016.4 hPa NE 9 km/h 13 km/h 71% 0.00 mm 0.00 W/m2 unknown
02:44 24.0 °C 18.0 °C 1016.3 hPa ENE 10 km/h 13 km/h 71% 0.00 mm 0.00 W/m2 unknown
02:49 24.0 °C 18.0 °C 1016.3 hPa ENE 8 km/h 13 km/h 71% 0.00 mm 0.00 W/m2 unknown
02:54 24.0 °C 18.0 °C 1016.3 hPa ENE 8 km/h 13 km/h 71% 0.00 mm 0.00 W/m2 unknown
02:59 24.0 °C 18.0 °C 1016.3 hPa ENE 8 km/h 13 km/h 71% 0.00 mm 0.00 W/m2 unknown
03:04 24.0 °C 18.0 °C 1016.3 hPa ENE 8 km/h 11 km/h 71% 0.00 mm 0.00 W/m2 unknown
03:09 24.0 °C 18.0 °C 1016.3 hPa ENE 6 km/h 8 km/h 71% 0.00 mm 0.00 W/m2 unknown
03:14 24.0 °C 18.0 °C 1016.3 hPa ENE 6 km/h 11 km/h 71% 0.00 mm 0.00 W/m2 unknown
03:19 24.0 °C 18.0 °C 1016.3 hPa ENE 7 km/h 11 km/h 71% 0.00 mm 0.00 W/m2 unknown
03:24 24.0 °C 18.0 °C 1016.2 hPa ENE 6 km/h 11 km/h 71% 0.00 mm 0.00 W/m2 unknown
03:29 24.0 °C 18.0 °C 1016.2 hPa East 5 km/h 8 km/h 71% 0.00 mm 0.00 W/m2 unknown
03:34 24.0 °C 18.0 °C 1016.2 hPa ENE 5 km/h 8 km/h 71% 0.00 mm 0.00 W/m2 unknown
03:39 23.0 °C 18.0 °C 1016.2 hPa ENE 4 km/h 7 km/h 72% 0.00 mm 0.00 W/m2 unknown
03:44 23.0 °C 18.0 °C 1016.2 hPa ENE 3 km/h 8 km/h 72% 0.00 mm 0.00 W/m2 unknown
03:49 23.0 °C 18.0 °C 1016.2 hPa ENE 3 km/h 5 km/h 72% 0.00 mm 0.00 W/m2 unknown
03:54 23.0 °C 18.0 °C 1016.2 hPa ENE 3 km/h 6 km/h 73% 0.00 mm 0.00 W/m2 unknown
03:59 23.0 °C 18.0 °C 1016.2 hPa NE 4 km/h 6 km/h 73% 0.00 mm 0.00 W/m2 unknown
04:03 23.0 °C 18.0 °C 1016.2 hPa ENE 4 km/h 6 km/h 73% 0.00 mm 0.00 W/m2 unknown
04:08 23.0 °C 18.0 °C 1016.3 hPa ENE 4 km/h 6 km/h 73% 0.00 mm 0.00 W/m2 unknown
04:13 23.0 °C 18.0 °C 1016.3 hPa ENE 3 km/h 6 km/h 74% 0.00 mm 0.00 W/m2 unknown
04:18 23.0 °C 18.0 °C 1016.3 hPa ENE 4 km/h 8 km/h 74% 0.00 mm 0.00 W/m2 unknown
04:23 23.0 °C 18.0 °C 1016.2 hPa ENE 5 km/h 8 km/h 74% 0.00 mm 0.00 W/m2 unknown
04:28 23.0 °C 18.0 °C 1016.2 hPa ENE 5 km/h 7 km/h 74% 0.00 mm 0.00 W/m2 unknown
04:34 23.0 °C 18.0 °C 1016.2 hPa ENE 5 km/h 8 km/h 75% 0.00 mm 0.00 W/m2 unknown
04:38 23.0 °C 18.0 °C 1016.2 hPa NE 4 km/h 6 km/h 75% 0.00 mm 0.00 W/m2 unknown
04:43 23.0 °C 18.0 °C 1016.2 hPa NE 4 km/h 6 km/h 76% 0.00 mm 0.00 W/m2 unknown
04:48 23.0 °C 18.0 °C 1016.2 hPa NE 3 km/h 6 km/h 76% 0.00 mm 0.00 W/m2 unknown
04:53 23.0 °C 18.0 °C 1016.2 hPa NE 3 km/h 6 km/h 76% 0.00 mm 0.00 W/m2 unknown
04:58 23.0 °C 18.0 °C 1016.3 hPa NE 1 km/h 4 km/h 76% 0.00 mm 0.00 W/m2 unknown
05:04 23.0 °C 18.0 °C 1016.4 hPa NE 2 km/h 3 km/h 76% 0.00 mm 0.00 W/m2 unknown
05:09 23.0 °C 18.0 °C 1016.4 hPa Calm   2 km/h 76% 0.00 mm 0.00 W/m2 unknown
05:14 23.0 °C 18.0 °C 1016.5 hPa Calm     78% 0.00 mm 0.00 W/m2 unknown
05:19 23.0 °C 18.0 °C 1016.5 hPa Calm     79% 0.00 mm 0.00 W/m2 unknown
05:23 22.0 °C 18.0 °C 1016.6 hPa Calm     79% 0.00 mm 0.00 W/m2 unknown
05:29 22.0 °C 18.0 °C 1016.6 hPa Calm     80% 0.00 mm 0.00 W/m2 unknown
05:33 22.0 °C 18.0 °C 1016.6 hPa NE 1 km/h 2 km/h 80% 0.00 mm 5.00 W/m2 unknown
05:39 22.0 °C 18.0 °C 1016.7 hPa NE 1 km/h 2 km/h 80% 0.00 mm 7.00 W/m2 unknown
05:44 22.0 °C 18.0 °C 1016.8 hPa Calm   2 km/h 81% 0.00 mm 11.00 W/m2 unknown
05:49 22.0 °C 18.0 °C 1016.8 hPa NE 3 km/h 6 km/h 81% 0.00 mm 12.00 W/m2 unknown
05:54 22.0 °C 18.0 °C 1016.9 hPa NNE 4 km/h 6 km/h 81% 0.00 mm 16.00 W/m2 unknown
05:59 22.0 °C 19.0 °C 1016.9 hPa NNE 4 km/h 6 km/h 81% 0.00 mm 19.00 W/m2 unknown
06:04 22.0 °C 18.0 °C 1016.9 hPa NE 4 km/h 6 km/h 80% 0.00 mm 19.00 W/m2 unknown
06:08 22.0 °C 18.0 °C 1016.9 hPa NE 4 km/h 6 km/h 81% 0.00 mm 19.00 W/m2 unknown
06:14 22.0 °C 19.0 °C 1017.0 hPa NNE 4 km/h 6 km/h 81% 0.00 mm 33.00 W/m2 unknown
06:19 22.0 °C 19.0 °C 1017.1 hPa NNE 3 km/h 6 km/h 81% 0.00 mm 40.00 W/m2 unknown
06:24 22.0 °C 19.0 °C 1017.1 hPa NNE 2 km/h 5 km/h 80% 0.00 mm 47.00 W/m2 unknown
06:29 22.0 °C 19.0 °C 1017.2 hPa Calm   2 km/h 80% 0.00 mm 54.00 W/m2 unknown
06:34 22.0 °C 19.0 °C 1017.2 hPa Calm     80% 0.00 mm 63.00 W/m2 unknown
06:39 22.0 °C 19.0 °C 1017.3 hPa Calm     80% 0.00 mm 72.00 W/m2 unknown
06:44 23.0 °C 19.0 °C 1017.4 hPa Calm     80% 0.00 mm 84.00 W/m2 unknown
06:49 23.0 °C 19.0 °C 1017.3 hPa Calm     80% 0.00 mm 95.00 W/m2 unknown
06:54 23.0 °C 19.0 °C 1017.3 hPa Calm     80% 0.00 mm 104.00 W/m2 unknown
06:59 23.0 °C 19.0 °C 1017.2 hPa Calm   3 km/h 79% 0.00 mm 114.00 W/m2 unknown
07:04 23.0 °C 19.0 °C 1017.3 hPa NE 1 km/h 4 km/h 77% 0.00 mm 128.00 W/m2 unknown
07:09 24.0 °C 19.0 °C 1017.3 hPa NE 1 km/h 4 km/h 77% 0.00 mm 156.00 W/m2 unknown
07:14 24.0 °C 19.0 °C 1017.3 hPa NE 1 km/h 4 km/h 76% 0.00 mm 176.00 W/m2 unknown
07:19 24.0 °C 19.0 °C 1017.3 hPa NE 2 km/h 4 km/h 76% 0.00 mm 190.00 W/m2 unknown
07:24 24.0 °C 19.0 °C 1017.3 hPa NE 3 km/h 6 km/h 76% 0.00 mm 181.00 W/m2 unknown
07:29 24.0 °C 19.0 °C 1017.3 hPa NE 3 km/h 6 km/h 74% 0.00 mm 165.00 W/m2 unknown
07:34 24.0 °C 19.0 °C 1017.3 hPa ENE 2 km/h 6 km/h 76% 0.00 mm 67.00 W/m2 unknown
07:39 24.0 °C 19.0 °C 1017.4 hPa East 2 km/h 5 km/h 78% 0.00 mm 63.00 W/m2 unknown
07:44 24.0 °C 20.0 °C 1017.5 hPa East 2 km/h 4 km/h 80% 0.00 mm 90.00 W/m2 unknown
07:49 23.0 °C 20.0 °C 1017.6 hPa East 2 km/h 4 km/h 80% 0.00 mm 100.00 W/m2 unknown
07:54 23.0 °C 20.0 °C 1017.5 hPa ESE 2 km/h 3 km/h 80% 0.00 mm 221.00 W/m2 unknown
07:59 24.0 °C 20.0 °C 1017.6 hPa Calm   2 km/h 79% 0.00 mm 299.00 W/m2 unknown
08:04 24.0 °C 20.0 °C 1017.6 hPa Calm   2 km/h 78% 0.00 mm 299.00 W/m2 unknown
08:09 25.0 °C 20.0 °C 1017.6 hPa East 1 km/h 2 km/h 76% 0.00 mm 309.00 W/m2 unknown
08:14 25.0 °C 20.0 °C 1017.7 hPa ESE 1 km/h 4 km/h 74% 0.00 mm 315.00 W/m2 unknown
08:18 25.0 °C 20.0 °C 1017.8 hPa SSE 2 km/h 5 km/h 75% 0.00 mm 320.00 W/m2 unknown
08:24 25.0 °C 20.0 °C 1017.7 hPa South 2 km/h 6 km/h 75% 0.00 mm 315.00 W/m2 unknown
08:29 25.0 °C 20.0 °C 1017.8 hPa SW 4 km/h 6 km/h 75% 0.00 mm 315.00 W/m2 unknown
08:34 25.0 °C 20.0 °C 1017.8 hPa SW 3 km/h 6 km/h 74% 0.00 mm 424.00 W/m2 unknown
08:39 25.0 °C 20.0 °C 1017.8 hPa ESE 3 km/h 6 km/h 73% 0.00 mm 448.00 W/m2 unknown
08:44 26.0 °C 20.0 °C 1017.9 hPa SE 2 km/h 6 km/h 73% 0.00 mm 450.00 W/m2 unknown
08:49 26.0 °C 20.0 °C 1017.9 hPa ESE 3 km/h 6 km/h 72% 0.00 mm 468.00 W/m2 unknown
08:54 26.0 °C 21.0 °C 1017.9 hPa SSE 3 km/h 6 km/h 74% 0.00 mm 480.00 W/m2 unknown
08:59 26.0 °C 21.0 °C 1017.8 hPa SE 3 km/h 6 km/h 74% 0.00 mm 487.00 W/m2 unknown
09:04 26.0 °C 21.0 °C 1017.8 hPa East 3 km/h 6 km/h 72% 0.00 mm 462.00 W/m2 unknown
09:09 26.0 °C 21.0 °C 1017.8 hPa ESE 3 km/h 6 km/h 72% 0.00 mm 534.00 W/m2 unknown
09:14 26.0 °C 20.0 °C 1018.0 hPa ESE 3 km/h 6 km/h 71% 0.00 mm 529.00 W/m2 unknown
09:19 27.0 °C 21.0 °C 1018.0 hPa East 4 km/h 8 km/h 70% 0.00 mm 570.00 W/m2 unknown
09:24 27.0 °C 21.0 °C 1018.0 hPa ESE 4 km/h 8 km/h 70% 0.00 mm 578.00 W/m2 unknown
09:29 28.0 °C 21.0 °C 1018.0 hPa ENE 4 km/h 11 km/h 70% 0.00 mm 554.00 W/m2 unknown
09:34 28.0 °C 21.0 °C 1018.0 hPa ENE 5 km/h 11 km/h 68% 0.00 mm 541.00 W/m2 unknown
09:38 28.0 °C 21.0 °C 1018.0 hPa ENE 5 km/h 11 km/h 68% 0.00 mm 582.00 W/m2 unknown
09:44 28.0 °C 21.0 °C 1018.0 hPa SE 5 km/h 11 km/h 66% 0.00 mm 619.00 W/m2 unknown
09:49 28.0 °C 21.0 °C 1018.0 hPa ESE 6 km/h 11 km/h 66% 0.00 mm 608.00 W/m2 unknown
09:54 28.0 °C 21.0 °C 1017.9 hPa East 8 km/h 13 km/h 65% 0.00 mm 656.00 W/m2 unknown
09:59 28.0 °C 21.0 °C 1017.9 hPa East 9 km/h 13 km/h 64% 0.00 mm 659.00 W/m2 unknown
10:04 28.0 °C 21.0 °C 1017.9 hPa ESE 9 km/h 13 km/h 64% 0.00 mm 715.00 W/m2 unknown
10:09 28.0 °C 21.0 °C 1017.9 hPa East 8 km/h 13 km/h 65% 0.00 mm 728.00 W/m2 unknown
10:14 29.0 °C 21.0 °C 1017.9 hPa ENE 8 km/h 13 km/h 64% 0.00 mm 745.00 W/m2 unknown
10:19 29.0 °C 21.0 °C 1017.9 hPa East 8 km/h 13 km/h 63% 0.00 mm 738.00 W/m2 unknown
10:24 29.0 °C 21.0 °C 1017.9 hPa East 8 km/h 13 km/h 63% 0.00 mm 729.00 W/m2 unknown
10:29 28.0 °C 21.0 °C 1017.9 hPa SE 8 km/h 11 km/h 64% 0.00 mm 729.00 W/m2 unknown
10:34 29.0 °C 21.0 °C 1017.9 hPa SE 8 km/h 11 km/h 64% 0.00 mm 761.00 W/m2 unknown
10:39 29.0 °C 21.0 °C 1017.9 hPa SE 7 km/h 11 km/h 65% 0.00 mm 722.00 W/m2 unknown
10:44 29.0 °C 21.0 °C 1017.9 hPa SSE 8 km/h 11 km/h 63% 0.00 mm 722.00 W/m2 unknown
10:49 29.0 °C 21.0 °C 1017.9 hPa WNW 8 km/h 11 km/h 63% 0.00 mm 701.00 W/m2 unknown
10:54 29.0 °C 21.0 °C 1017.9 hPa ENE 7 km/h 10 km/h 63% 0.00 mm 733.00 W/m2 unknown
10:59 29.0 °C 21.0 °C 1017.9 hPa ESE 6 km/h 10 km/h 60% 0.00 mm 733.00 W/m2 unknown
11:04 29.0 °C 21.0 °C 1017.9 hPa SE 5 km/h 10 km/h 60% 0.00 mm 719.00 W/m2 unknown
11:09 29.0 °C 20.0 °C 1017.9 hPa ENE 5 km/h 11 km/h 59% 0.00 mm 719.00 W/m2 unknown
11:14 29.0 °C 21.0 °C 1017.9 hPa East 7 km/h 11 km/h 60% 0.00 mm 737.00 W/m2 unknown
11:19 30.0 °C 21.0 °C 1017.9 hPa East 8 km/h 11 km/h 60% 0.00 mm 740.00 W/m2 unknown
11:24 30.0 °C 21.0 °C 1017.9 hPa East 8 km/h 11 km/h 60% 0.00 mm 758.00 W/m2 unknown
11:29 30.0 °C 21.0 °C 1017.9 hPa East 8 km/h 11 km/h 58% 0.00 mm 754.00 W/m2 unknown
11:34 30.0 °C 21.0 °C 1017.9 hPa SE 6 km/h 11 km/h 59% 0.00 mm 745.00 W/m2 unknown
11:39 30.0 °C 21.0 °C 1017.8 hPa SSE 5 km/h 10 km/h 58% 0.00 mm 782.00 W/m2 unknown
11:44 30.0 °C 21.0 °C 1017.9 hPa East 5 km/h 10 km/h 60% 0.00 mm 782.00 W/m2 unknown
11:49 30.0 °C 21.0 °C 1017.9 hPa NNW 3 km/h 10 km/h 57% 0.00 mm 775.00 W/m2 unknown
11:54 30.0 °C 21.0 °C 1017.9 hPa ESE 5 km/h 13 km/h 58% 0.00 mm 789.00 W/m2 unknown
11:59 30.0 °C 21.0 °C 1017.9 hPa East 6 km/h 13 km/h 57% 0.00 mm 819.00 W/m2 unknown
12:04 30.0 °C 21.0 °C 1017.9 hPa ESE 6 km/h 11 km/h 57% 0.00 mm 816.00 W/m2 unknown
12:09 31.0 °C 21.0 °C 1017.9 hPa East 6 km/h 13 km/h 56% 0.00 mm 838.00 W/m2 unknown
12:14 31.0 °C 21.0 °C 1017.9 hPa ENE 8 km/h 13 km/h 56% 0.00 mm 775.00 W/m2 unknown
12:19 31.0 °C 21.0 °C 1017.8 hPa ENE 8 km/h 13 km/h 56% 0.00 mm 772.00 W/m2 unknown
12:24 31.0 °C 21.0 °C 1017.8 hPa ESE 6 km/h 13 km/h 55% 0.00 mm 803.00 W/m2 unknown
12:29 31.0 °C 21.0 °C 1017.8 hPa ESE 5 km/h 13 km/h 57% 0.00 mm 823.00 W/m2 unknown
12:34 31.0 °C 21.0 °C 1017.8 hPa East 5 km/h 8 km/h 58% 0.00 mm 823.00 W/m2 unknown
12:39 31.0 °C 22.0 °C 1017.7 hPa ENE 7 km/h 13 km/h 57% 0.00 mm 830.00 W/m2 unknown
12:44 31.0 °C 22.0 °C 1017.7 hPa East 8 km/h 13 km/h 57% 0.00 mm 831.00 W/m2 unknown
12:49 31.0 °C 22.0 °C 1017.6 hPa NE 8 km/h 13 km/h 57% 0.00 mm 831.00 W/m2 unknown
12:54 31.0 °C 21.0 °C 1017.6 hPa ENE 6 km/h 13 km/h 56% 0.00 mm 844.00 W/m2 unknown
12:59 31.0 °C 21.0 °C 1017.5 hPa NE 7 km/h 11 km/h 55% 0.00 mm 846.00 W/m2 unknown
13:04 32.0 °C 21.0 °C 1017.5 hPa SE 5 km/h 11 km/h 55% 0.00 mm 861.00 W/m2 unknown
13:09 32.0 °C 22.0 °C 1017.5 hPa South 3 km/h 6 km/h 58% 0.00 mm 856.00 W/m2 unknown
13:13 32.0 °C 21.0 °C 1017.4 hPa SSE 3 km/h 6 km/h 55% 0.00 mm 861.00 W/m2 unknown
13:19 32.0 °C 21.0 °C 1017.4 hPa ESE 3 km/h 6 km/h 55% 0.00 mm 863.00 W/m2 unknown
13:24 32.0 °C 22.0 °C 1017.5 hPa SE 4 km/h 6 km/h 55% 0.00 mm 844.00 W/m2 unknown
13:29 32.0 °C 21.0 °C 1017.4 hPa East 4 km/h 6 km/h 55% 0.00 mm 854.00 W/m2 unknown
13:34 32.0 °C 22.0 °C 1017.4 hPa ENE 5 km/h 10 km/h 56% 0.00 mm 863.00 W/m2 unknown
13:39 32.0 °C 22.0 °C 1017.4 hPa SSE 6 km/h 10 km/h 54% 0.00 mm 861.00 W/m2 unknown
13:44 32.0 °C 21.0 °C 1017.4 hPa SSE 6 km/h 10 km/h 54% 0.00 mm 856.00 W/m2 unknown
13:49 32.0 °C 21.0 °C 1017.3 hPa ENE 7 km/h 11 km/h 53% 0.00 mm 854.00 W/m2 unknown
13:54 32.0 °C 22.0 °C 1017.2 hPa NNE 6 km/h 11 km/h 54% 0.00 mm 854.00 W/m2 unknown
13:59 32.0 °C 22.0 °C 1017.2 hPa NNE 5 km/h 11 km/h 53% 0.00 mm 849.00 W/m2 unknown
14:04 33.0 °C 21.0 °C 1017.2 hPa ENE 4 km/h 10 km/h 52% 0.00 mm 858.00 W/m2 unknown
14:09 33.0 °C 21.0 °C 1017.2 hPa ESE 4 km/h 10 km/h 53% 0.00 mm 858.00 W/m2 unknown
14:14 33.0 °C 22.0 °C 1017.1 hPa ESE 5 km/h 10 km/h 54% 0.00 mm 835.00 W/m2 unknown
14:19 32.0 °C 21.0 °C 1017.1 hPa ESE 3 km/h 10 km/h 53% 0.00 mm 812.00 W/m2 unknown
14:24 32.0 °C 22.0 °C 1017.1 hPa North 2 km/h 6 km/h 55% 0.00 mm 856.00 W/m2 unknown
14:29 33.0 °C 22.0 °C 1017.0 hPa NNW 3 km/h 6 km/h 53% 0.00 mm 856.00 W/m2 unknown
14:34 33.0 °C 21.0 °C 1017.0 hPa NNE 3 km/h 6 km/h 52% 0.00 mm 844.00 W/m2 unknown
14:39 33.0 °C 21.0 °C 1016.9 hPa NW 3 km/h 6 km/h 53% 0.00 mm 826.00 W/m2 unknown
14:44 33.0 °C 22.0 °C 1016.9 hPa East 7 km/h 13 km/h 52% 0.00 mm 844.00 W/m2 unknown
14:49 33.0 °C 22.0 °C 1016.8 hPa ESE 9 km/h 13 km/h 51% 0.00 mm 844.00 W/m2 unknown
14:54 33.0 °C 21.0 °C 1016.8 hPa East 8 km/h 13 km/h 52% 0.00 mm 809.00 W/m2 unknown
14:59 33.0 °C 21.0 °C 1016.8 hPa East 8 km/h 13 km/h 51% 0.00 mm 810.00 W/m2 unknown
15:04 33.0 °C 21.0 °C 1016.8 hPa ESE 8 km/h 13 km/h 50% 0.00 mm 809.00 W/m2 unknown
15:09 33.0 °C 21.0 °C 1016.7 hPa ESE 5 km/h 11 km/h 52% 0.00 mm 784.00 W/m2 unknown
15:14 33.0 °C 21.0 °C 1016.7 hPa East 7 km/h 10 km/h 51% 0.00 mm 802.00 W/m2 unknown
15:19 33.0 °C 21.0 °C 1016.7 hPa ESE 7 km/h 10 km/h 50% 0.00 mm 810.00 W/m2 unknown
15:24 33.0 °C 22.0 °C 1016.6 hPa South 5 km/h 10 km/h 52% 0.00 mm 768.00 W/m2 unknown
15:29 33.0 °C 22.0 °C 1016.6 hPa ESE 5 km/h 10 km/h 52% 0.00 mm 765.00 W/m2 unknown
15:34 33.0 °C 21.0 °C 1016.6 hPa NE 5 km/h 8 km/h 50% 0.00 mm 749.00 W/m2 unknown
15:39 33.0 °C 21.0 °C 1016.5 hPa ENE 5 km/h 10 km/h 49% 0.00 mm 744.00 W/m2 unknown
15:44 33.0 °C 21.0 °C 1016.5 hPa ESE 5 km/h 10 km/h 49% 0.00 mm 744.00 W/m2 unknown
15:49 33.0 °C 21.0 °C 1016.5 hPa ESE 5 km/h 8 km/h 49% 0.00 mm 729.00 W/m2 unknown
15:54 33.0 °C 21.0 °C 1016.5 hPa ESE 6 km/h 10 km/h 49% 0.00 mm 728.00 W/m2 unknown
15:59 33.0 °C 21.0 °C 1016.4 hPa East 6 km/h 11 km/h 48% 0.00 mm 696.00 W/m2 unknown
16:04 33.0 °C 20.0 °C 1016.4 hPa ESE 8 km/h 11 km/h 47% 0.00 mm 724.00 W/m2 unknown
16:09 33.0 °C 21.0 °C 1016.4 hPa ESE 8 km/h 11 km/h 48% 0.00 mm 721.00 W/m2 unknown
16:14 33.0 °C 21.0 °C 1016.3 hPa SE 8 km/h 11 km/h 48% 0.00 mm 679.00 W/m2 unknown
16:19 33.0 °C 21.0 °C 1016.2 hPa East 6 km/h 11 km/h 49% 0.00 mm 679.00 W/m2 unknown
16:22 33.0 °C 20.0 °C 1016.0 hPa East 6 km/h 11 km/h 47% 0.00 mm 621.00 W/m2 unknown
16:29 33.0 °C 20.0 °C 1016.0 hPa East 6 km/h 11 km/h 47% 0.00 mm 629.00 W/m2 unknown
16:34 33.0 °C 20.0 °C 1016.0 hPa ESE 6 km/h 8 km/h 47% 0.00 mm 629.00 W/m2 unknown
16:39 33.0 °C 20.0 °C 1016.0 hPa East 4 km/h 8 km/h 47% 0.00 mm 606.00 W/m2 unknown
16:44 33.0 °C 20.0 °C 1016.0 hPa East 5 km/h 8 km/h 47% 0.00 mm 608.00 W/m2 unknown
16:49 33.0 °C 20.0 °C 1016.0 hPa East 5 km/h 11 km/h 46% 0.00 mm 585.00 W/m2 unknown
16:54 34.0 °C 20.0 °C 1016.0 hPa East 7 km/h 11 km/h 46% 0.00 mm 584.00 W/m2 unknown
16:59 34.0 °C 20.0 °C 1016.0 hPa ESE 7 km/h 11 km/h 46% 0.00 mm 570.00 W/m2 unknown
17:04 34.0 °C 20.0 °C 1015.9 hPa ESE 6 km/h 11 km/h 45% 0.00 mm 564.00 W/m2 unknown
17:09 33.0 °C 20.0 °C 1015.9 hPa ESE 6 km/h 11 km/h 45% 0.00 mm 554.00 W/m2 unknown
17:14 33.0 °C 20.0 °C 1015.9 hPa East 7 km/h 11 km/h 47% 0.00 mm 533.00 W/m2 unknown
17:19 33.0 °C 20.0 °C 1015.9 hPa ESE 5 km/h 11 km/h 46% 0.00 mm 519.00 W/m2 unknown
17:24 33.0 °C 20.0 °C 1015.8 hPa ESE 5 km/h 8 km/h 47% 0.00 mm 517.00 W/m2 unknown
17:29 33.0 °C 20.0 °C 1015.7 hPa ESE 5 km/h 6 km/h 45% 0.00 mm 490.00 W/m2 unknown
17:34 33.0 °C 19.0 °C 1015.7 hPa ESE 5 km/h 6 km/h 44% 0.00 mm 476.00 W/m2 unknown
17:39 33.0 °C 20.0 °C 1015.6 hPa East 3 km/h 6 km/h 46% 0.00 mm 462.00 W/m2 unknown
17:44 33.0 °C 20.0 °C 1015.6 hPa ESE 2 km/h 6 km/h 46% 0.00 mm 452.00 W/m2 unknown
17:49 33.0 °C 20.0 °C 1015.6 hPa East 4 km/h 6 km/h 46% 0.00 mm 410.00 W/m2 unknown
17:54 33.0 °C 20.0 °C 1015.6 hPa East 4 km/h 6 km/h 45% 0.00 mm 380.00 W/m2 unknown
17:59 33.0 °C 20.0 °C 1015.5 hPa East 3 km/h 6 km/h 46% 0.00 mm 380.00 W/m2 unknown
18:04 33.0 °C 20.0 °C 1015.5 hPa ESE 5 km/h 8 km/h 48% 0.00 mm 399.00 W/m2 unknown
18:09 33.0 °C 20.0 °C 1015.5 hPa ESE 5 km/h 8 km/h 47% 0.00 mm 399.00 W/m2 unknown
18:14 33.0 °C 19.0 °C 1015.5 hPa ESE 5 km/h 8 km/h 45% 0.00 mm 387.00 W/m2 unknown
18:19 33.0 °C 19.0 °C 1015.5 hPa East 5 km/h 8 km/h 45% 0.00 mm 357.00 W/m2 unknown
18:24 33.0 °C 20.0 °C 1015.5 hPa ENE 5 km/h 8 km/h 45% 0.00 mm 355.00 W/m2 unknown
18:29 33.0 °C 20.0 °C 1015.5 hPa East 5 km/h 8 km/h 45% 0.00 mm 330.00 W/m2 unknown
18:34 33.0 °C 20.0 °C 1015.6 hPa ENE 5 km/h 7 km/h 45% 0.00 mm 297.00 W/m2 unknown
18:39 33.0 °C 20.0 °C 1015.6 hPa ENE 4 km/h 8 km/h 45% 0.00 mm 294.00 W/m2 unknown
18:44 33.0 °C 20.0 °C 1015.6 hPa East 5 km/h 8 km/h 46% 0.00 mm 272.00 W/m2 unknown
18:49 33.0 °C 20.0 °C 1015.6 hPa East 4 km/h 8 km/h 48% 0.00 mm 230.00 W/m2 unknown
18:54 33.0 °C 20.0 °C 1015.7 hPa East 4 km/h 6 km/h 47% 0.00 mm 190.00 W/m2 unknown
18:59 33.0 °C 20.0 °C 1015.7 hPa East 4 km/h 6 km/h 48% 0.00 mm 188.00 W/m2 unknown
19:04 33.0 °C 20.0 °C 1015.6 hPa ENE 4 km/h 6 km/h 48% 0.00 mm 214.00 W/m2 unknown
19:09 33.0 °C 20.0 °C 1015.7 hPa ENE 4 km/h 6 km/h 48% 0.00 mm 214.00 W/m2 unknown
19:13 33.0 °C 20.0 °C 1015.7 hPa ENE 4 km/h 6 km/h 48% 0.00 mm 185.00 W/m2 unknown
19:17 33.0 °C 20.0 °C 1015.7 hPa NE 4 km/h 6 km/h 48% 0.00 mm 149.00 W/m2 unknown
19:24 33.0 °C 20.0 °C 1015.7 hPa East 4 km/h 6 km/h 48% 0.00 mm 137.00 W/m2 unknown
19:29 32.0 °C 21.0 °C 1015.7 hPa ENE 4 km/h 6 km/h 53% 0.00 mm 137.00 W/m2 unknown
19:34 32.0 °C 22.0 °C 1015.7 hPa ENE 4 km/h 6 km/h 55% 0.00 mm 125.00 W/m2 unknown
19:39 32.0 °C 22.0 °C 1015.7 hPa ENE 3 km/h 5 km/h 56% 0.00 mm 125.00 W/m2 unknown
19:44 32.0 °C 22.0 °C 1015.7 hPa ENE 3 km/h 6 km/h 56% 0.00 mm 90.00 W/m2 unknown
19:49 32.0 °C 22.0 °C 1015.8 hPa ENE 4 km/h 6 km/h 56% 0.00 mm 88.00 W/m2 unknown
19:54 32.0 °C 21.0 °C 1015.8 hPa ENE 4 km/h 6 km/h 55% 0.00 mm 76.00 W/m2 unknown
19:59 31.0 °C 21.0 °C 1015.8 hPa ENE 4 km/h 6 km/h 54% 0.00 mm 65.00 W/m2 unknown
20:04 31.0 °C 21.0 °C 1015.8 hPa ENE 4 km/h 6 km/h 53% 0.00 mm 62.00 W/m2 unknown
20:08 31.0 °C 20.0 °C 1015.8 hPa ENE 4 km/h 6 km/h 52% 0.00 mm 54.00 W/m2 unknown
20:14 31.0 °C 21.0 °C 1015.9 hPa ENE 5 km/h 6 km/h 54% 0.00 mm 47.00 W/m2 unknown
20:19 31.0 °C 21.0 °C 1015.9 hPa East 5 km/h 6 km/h 57% 0.00 mm 42.00 W/m2 unknown
20:24 31.0 °C 21.0 °C 1015.9 hPa ESE 4 km/h 6 km/h 56% 0.00 mm 40.00 W/m2 unknown
20:29 30.0 °C 20.0 °C 1015.9 hPa ESE 4 km/h 6 km/h 56% 0.00 mm 37.00 W/m2 unknown
20:34 30.0 °C 21.0 °C 1016.0 hPa ENE 3 km/h 6 km/h 57% 0.00 mm 32.00 W/m2 unknown
20:39 30.0 °C 21.0 °C 1016.1 hPa ENE 3 km/h 6 km/h 57% 0.00 mm 26.00 W/m2 unknown
20:44 30.0 °C 21.0 °C 1016.1 hPa ENE 3 km/h 6 km/h 57% 0.00 mm 23.00 W/m2 unknown
20:49 30.0 °C 20.0 °C 1016.3 hPa ENE 5 km/h 8 km/h 56% 0.00 mm 18.00 W/m2 unknown
20:54 30.0 °C 20.0 °C 1016.4 hPa East 8 km/h 13 km/h 56% 0.00 mm 12.00 W/m2 unknown
20:59 30.0 °C 21.0 °C 1016.4 hPa ESE 9 km/h 13 km/h 59% 0.00 mm 7.00 W/m2 unknown
21:04 30.0 °C 21.0 °C 1016.6 hPa ESE 8 km/h 13 km/h 59% 0.00 mm 0.00 W/m2 unknown
21:09 29.0 °C 21.0 °C 1016.6 hPa ESE 6 km/h 11 km/h 60% 0.00 mm 0.00 W/m2 unknown
21:14 29.0 °C 21.0 °C 1016.7 hPa ESE 7 km/h 11 km/h 60% 0.00 mm 0.00 W/m2 unknown
21:19 29.0 °C 20.0 °C 1016.8 hPa ESE 9 km/h 13 km/h 60% 0.00 mm 0.00 W/m2 unknown
21:24 29.0 °C 20.0 °C 1016.9 hPa ESE 9 km/h 13 km/h 60% 0.00 mm 0.00 W/m2 unknown
21:29 29.0 °C 20.0 °C 1017.0 hPa ESE 8 km/h 15 km/h 60% 0.00 mm 0.00 W/m2 unknown
21:34 29.0 °C 20.0 °C 1017.1 hPa ESE 10 km/h 15 km/h 59% 0.00 mm 0.00 W/m2 unknown
21:39 29.0 °C 19.0 °C 1017.2 hPa ESE 10 km/h 15 km/h 58% 0.00 mm 0.00 W/m2 unknown
21:44 28.0 °C 19.0 °C 1017.3 hPa ESE 10 km/h 13 km/h 57% 0.00 mm 0.00 W/m2 unknown
21:49 28.0 °C 19.0 °C 1017.4 hPa ESE 10 km/h 13 km/h 57% 0.00 mm 0.00 W/m2 unknown
21:54 28.0 °C 19.0 °C 1017.5 hPa SE 10 km/h 15 km/h 56% 0.00 mm 0.00 W/m2 unknown
21:59 28.0 °C 18.0 °C 1017.5 hPa ESE 10 km/h 15 km/h 55% 0.00 mm 0.00 W/m2 unknown
22:04 28.0 °C 18.0 °C 1017.6 hPa ESE 10 km/h 14 km/h 55% 0.00 mm 0.00 W/m2 unknown
22:09 28.0 °C 18.0 °C 1017.7 hPa East 8 km/h 13 km/h 55% 0.00 mm 0.00 W/m2 unknown
22:14 28.0 °C 18.0 °C 1017.8 hPa East 8 km/h 13 km/h 56% 0.00 mm 0.00 W/m2 unknown
22:19 28.0 °C 18.0 °C 1017.8 hPa East 8 km/h 11 km/h 57% 0.00 mm 0.00 W/m2 unknown
22:24 27.0 °C 18.0 °C 1017.9 hPa ESE 7 km/h 11 km/h 57% 0.00 mm 0.00 W/m2 unknown
22:29 27.0 °C 18.0 °C 1018.0 hPa East 7 km/h 13 km/h 57% 0.00 mm 0.00 W/m2 unknown
22:34 27.0 °C 18.0 °C 1018.1 hPa East 8 km/h 13 km/h 58% 0.00 mm 0.00 W/m2 unknown
22:39 27.0 °C 18.0 °C 1018.1 hPa East 8 km/h 13 km/h 58% 0.00 mm 0.00 W/m2 unknown
22:44 27.0 °C 18.0 °C 1018.3 hPa ENE 5 km/h 13 km/h 58% 0.00 mm 0.00 W/m2 unknown
22:49 27.0 °C 17.0 °C 1018.5 hPa NE 8 km/h 11 km/h 57% 0.00 mm 0.00 W/m2 unknown
22:54 27.0 °C 18.0 °C 1018.6 hPa NE 8 km/h 11 km/h 58% 0.00 mm 0.00 W/m2 unknown
22:59 27.0 °C 18.0 °C 1018.6 hPa ENE 8 km/h 11 km/h 58% 0.00 mm 0.00 W/m2 unknown
23:04 26.0 °C 18.0 °C 1018.6 hPa NE 9 km/h 13 km/h 59% 0.00 mm 0.00 W/m2 unknown
23:09 26.0 °C 18.0 °C 1018.6 hPa NE 10 km/h 13 km/h 59% 0.00 mm 0.00 W/m2 unknown
23:14 26.0 °C 18.0 °C 1018.6 hPa NE 10 km/h 13 km/h 60% 0.00 mm 0.00 W/m2 unknown
23:19 26.0 °C 18.0 °C 1018.7 hPa ENE 10 km/h 13 km/h 61% 0.00 mm 0.00 W/m2 unknown
23:24 26.0 °C 18.0 °C 1018.8 hPa NE 10 km/h 13 km/h 61% 0.00 mm 0.00 W/m2 unknown
23:29 25.0 °C 18.0 °C 1018.9 hPa NE 11 km/h 17 km/h 62% 0.00 mm 0.00 W/m2 unknown
23:34 25.0 °C 17.0 °C 1018.9 hPa ENE 11 km/h 17 km/h 61% 0.00 mm 0.00 W/m2 unknown
23:39 25.0 °C 17.0 °C 1019.0 hPa NE 12 km/h 17 km/h 61% 0.00 mm 0.00 W/m2 unknown
23:44 25.0 °C 17.0 °C 1019.0 hPa ENE 12 km/h 17 km/h 61% 0.00 mm 0.00 W/m2 unknown
23:49 25.0 °C 17.0 °C 1019.1 hPa NE 11 km/h 17 km/h 61% 0.00 mm 0.00 W/m2 unknown
23:54 25.0 °C 17.0 °C 1019.1 hPa ENE 11 km/h 16 km/h 62% 0.00 mm 0.00 W/m2 unknown
23:59 25.0 °C 17.0 °C 1019.2 hPa ENE 10 km/h 15 km/h 62% 0.00 mm 0.00 W/m2 unknown
Stazione Meteorologica MeteoMincio Rivalta s/M (MN)
Con i complimenti di Weather Underground - 4 mb



METEO PILLOLE
Il nevaio perenne più meridionale d'Europa sotto i 1500 m
Fondo della Salsa, Teramo, Abruzzo, Italia:
Si estende tra circa 1100 m e circa 1200 m di quota. Riceve neve in grosse quantità per accumuli valanghivi provenienti dalla sovrastante e quasi verticale parete nord del Monte Camicia, 2565 m, nel gruppo montuoso del Gran Sasso d'Italia. Riceve pochissime ore di sole unicamente in piena estate, restando totalmente in ombra per la maggior parte dell'anno.
Share

Non seguire questo link o sarai bannato dal sito!